Time,TemperatureF,DewpointF,PressureIn,WindDirection,WindDirectionDegrees,WindSpeedMPH,WindSpeedGustMPH,Humidity,HourlyPrecipIn,Conditions,Clouds,dailyrainin,SoftwareType,DateUTC
2013-09-24 00:00:00,54.0,51.1,29.99,ENE,76,5.0,8.0,90,0.00,,,0.00,Wunderground v.1.15,2013-09-24 05:00:00,
2013-09-24 00:04:00,53.9,51.0,29.99,ENE,61,5.0,8.0,90,0.00,,,0.00,Wunderground v.1.15,2013-09-24 05:04:00,
2013-09-24 00:06:00,53.8,50.9,29.99,ENE,72,5.0,8.0,90,0.00,,,0.00,Wunderground v.1.15,2013-09-24 05:06:00,
2013-09-24 00:10:00,53.6,50.7,29.99,ENE,67,5.0,5.0,90,0.00,,,0.00,Wunderground v.1.15,2013-09-24 05:10:00,
2013-09-24 00:12:00,53.6,50.7,29.99,East,85,5.0,7.0,90,0.00,,,0.00,Wunderground v.1.15,2013-09-24 05:12:00,
2013-09-24 00:14:00,53.5,50.6,29.99,ESE,115,5.0,8.0,90,0.00,,,0.00,Wunderground v.1.15,2013-09-24 05:14:00,
2013-09-24 00:16:00,53.4,50.8,29.99,ENE,67,6.0,8.0,91,0.00,,,0.00,Wunderground v.1.15,2013-09-24 05:16:00,
2013-09-24 00:18:00,53.3,50.7,29.99,ENE,74,5.0,8.0,91,0.00,,,0.00,Wunderground v.1.15,2013-09-24 05:18:00,
2013-09-24 00:22:00,53.2,50.6,30.00,ENE,63,5.0,8.0,91,0.00,,,0.00,Wunderground v.1.15,2013-09-24 05:22:00,
2013-09-24 00:26:00,53.0,50.4,30.00,ESE,110,5.0,8.0,91,0.00,,,0.00,Wunderground v.1.15,2013-09-24 05:26:00,
2013-09-24 00:28:00,52.9,50.3,30.00,ESE,114,4.0,8.0,91,0.00,,,0.00,Wunderground v.1.15,2013-09-24 05:28:00,
2013-09-24 00:30:00,52.9,50.3,30.00,East,100,4.0,4.0,91,0.00,,,0.00,Wunderground v.1.15,2013-09-24 05:30:00,
2013-09-24 00:32:00,52.8,50.2,30.00,ESE,107,3.0,8.0,91,0.00,,,0.00,Wunderground v.1.15,2013-09-24 05:32:00,
2013-09-24 00:36:00,52.7,50.1,30.00,ESE,114,3.0,8.0,91,0.00,,,0.00,Wunderground v.1.15,2013-09-24 05:36:00,
2013-09-24 00:38:00,52.7,50.1,30.00,East,82,3.0,8.0,91,0.00,,,0.00,Wunderground v.1.15,2013-09-24 05:38:00,
2013-09-24 00:40:00,52.6,50.0,30.00,ESE,108,3.0,3.0,91,0.00,,,0.00,Wunderground v.1.15,2013-09-24 05:40:00,
2013-09-24 00:42:00,52.6,50.0,30.00,East,84,3.0,8.0,91,0.00,,,0.00,Wunderground v.1.15,2013-09-24 05:42:00,
2013-09-24 00:44:00,52.5,49.9,30.00,East,82,2.0,8.0,91,0.00,,,0.00,Wunderground v.1.15,2013-09-24 05:44:00,
2013-09-24 00:48:00,52.4,49.8,30.00,ENE,70,2.0,8.0,91,0.00,,,0.00,Wunderground v.1.15,2013-09-24 05:48:00,
2013-09-24 00:50:00,52.4,49.8,30.00,ENE,74,2.0,8.0,91,0.00,,,0.00,Wunderground v.1.15,2013-09-24 05:50:00,
2013-09-24 00:56:00,52.2,49.7,30.00,ENE,68,3.0,8.0,91,0.00,,,0.00,Wunderground v.1.15,2013-09-24 05:56:00,
2013-09-24 00:58:00,52.1,49.6,30.00,East,79,3.0,8.0,91,0.00,,,0.00,Wunderground v.1.15,2013-09-24 05:58:00,
2013-09-24 01:00:00,52.1,49.6,30.00,ENE,75,3.0,3.0,91,0.00,,,0.00,Wunderground v.1.15,2013-09-24 06:00:00,
2013-09-24 01:02:00,52.0,49.5,30.00,East,82,2.0,8.0,91,0.00,,,0.00,Wunderground v.1.15,2013-09-24 06:02:00,
2013-09-24 01:04:00,52.0,49.5,30.00,ENE,74,2.0,8.0,91,0.00,,,0.00,Wunderground v.1.15,2013-09-24 06:04:00,
2013-09-24 01:06:00,52.0,49.5,30.00,East,86,2.0,8.0,91,0.00,,,0.00,Wunderground v.1.15,2013-09-24 06:06:00,
2013-09-24 01:08:00,52.1,49.6,30.00,ENE,65,2.0,8.0,91,0.00,,,0.00,Wunderground v.1.15,2013-09-24 06:08:00,
2013-09-24 01:10:00,52.1,49.6,30.00,East,79,3.0,8.0,91,0.00,,,0.00,Wunderground v.1.15,2013-09-24 06:10:00,
2013-09-24 01:14:00,52.1,49.6,30.00,East,81,3.0,8.0,91,0.00,,,0.00,Wunderground v.1.15,2013-09-24 06:14:00,
2013-09-24 01:18:00,52.1,49.3,30.00,East,79,3.0,8.0,90,0.00,,,0.00,Wunderground v.1.15,2013-09-24 06:18:00,
2013-09-24 01:20:00,52.1,49.3,29.99,ENE,74,3.0,8.0,90,0.00,,,0.00,Wunderground v.1.15,2013-09-24 06:20:00,
2013-09-24 01:22:00,52.1,49.3,29.99,East,89,3.0,8.0,90,0.00,,,0.00,Wunderground v.1.15,2013-09-24 06:22:00,
2013-09-24 01:24:00,52.1,49.3,30.00,ENE,71,4.0,8.0,90,0.00,,,0.00,Wunderground v.1.15,2013-09-24 06:24:00,
2013-09-24 01:26:00,52.2,49.4,29.99,East,79,4.0,8.0,90,0.00,,,0.00,Wunderground v.1.15,2013-09-24 06:26:00,
2013-09-24 01:28:00,52.2,49.4,30.00,ENE,74,4.0,8.0,90,0.00,,,0.00,Wunderground v.1.15,2013-09-24 06:28:00,
2013-09-24 01:30:00,52.3,49.5,30.00,East,92,4.0,4.0,90,0.00,,,0.00,Wunderground v.1.15,2013-09-24 06:30:00,
2013-09-24 01:32:00,52.3,49.2,29.99,East,86,4.0,8.0,89,0.00,,,0.00,Wunderground v.1.15,2013-09-24 06:32:00,
2013-09-24 01:34:00,52.3,49.2,29.99,East,96,4.0,8.0,89,0.00,,,0.00,Wunderground v.1.15,2013-09-24 06:34:00,
2013-09-24 01:36:00,52.4,49.3,29.99,East,96,4.0,8.0,89,0.00,,,0.00,Wunderground v.1.15,2013-09-24 06:36:00,
2013-09-24 01:38:00,52.4,49.3,29.99,East,95,3.0,8.0,89,0.00,,,0.00,Wunderground v.1.15,2013-09-24 06:38:00,
2013-09-24 01:44:00,52.6,49.4,30.00,East,98,4.0,8.0,89,0.00,,,0.00,Wunderground v.1.15,2013-09-24 06:44:00,
2013-09-24 01:48:00,52.7,49.5,30.00,East,94,4.0,8.0,89,0.00,,,0.00,Wunderground v.1.15,2013-09-24 06:48:00,
2013-09-24 01:50:00,52.8,49.3,30.00,ENE,75,4.0,4.0,88,0.00,,,0.00,Wunderground v.1.15,2013-09-24 06:50:00,
2013-09-24 01:52:00,52.8,49.3,29.99,ENE,74,4.0,8.0,88,0.00,,,0.00,Wunderground v.1.15,2013-09-24 06:52:00,
2013-09-24 01:54:00,52.8,49.3,30.00,ENE,71,4.0,8.0,88,0.00,,,0.00,Wunderground v.1.15,2013-09-24 06:54:00,
2013-09-24 01:56:00,52.7,49.2,30.00,East,99,3.0,8.0,88,0.00,,,0.00,Wunderground v.1.15,2013-09-24 06:56:00,
2013-09-24 01:58:00,52.7,49.2,29.99,ENE,74,3.0,8.0,88,0.00,,,0.00,Wunderground v.1.15,2013-09-24 06:58:00,
2013-09-24 02:02:00,52.6,49.1,29.99,East,96,3.0,4.0,88,0.00,,,0.00,Wunderground v.1.15,2013-09-24 07:02:00,
2013-09-24 02:04:00,52.7,49.2,29.99,ENE,75,3.0,8.0,88,0.00,,,0.00,Wunderground v.1.15,2013-09-24 07:04:00,
2013-09-24 02:06:00,52.8,49.3,29.99,East,99,3.0,8.0,88,0.00,,,0.00,Wunderground v.1.15,2013-09-24 07:06:00,
2013-09-24 02:08:00,52.8,49.3,29.99,ESE,118,3.0,8.0,88,0.00,,,0.00,Wunderground v.1.15,2013-09-24 07:08:00,
2013-09-24 02:12:00,52.9,49.4,30.00,ENE,77,3.0,8.0,88,0.00,,,0.00,Wunderground v.1.15,2013-09-24 07:12:00,
2013-09-24 02:16:00,53.0,49.5,29.99,East,82,2.0,8.0,88,0.00,,,0.00,Wunderground v.1.15,2013-09-24 07:16:00,
2013-09-24 02:20:00,53.0,49.2,29.99,East,84,2.0,8.0,87,0.00,,,0.00,Wunderground v.1.15,2013-09-24 07:20:00,
2013-09-24 02:22:00,53.0,49.2,29.99,East,92,3.0,8.0,87,0.00,,,0.00,Wunderground v.1.15,2013-09-24 07:22:00,
2013-09-24 02:24:00,53.0,49.2,30.00,East,97,3.0,8.0,87,0.00,,,0.00,Wunderground v.1.15,2013-09-24 07:24:00,
2013-09-24 02:26:00,53.0,49.2,29.99,East,89,3.0,8.0,87,0.00,,,0.00,Wunderground v.1.15,2013-09-24 07:26:00,
2013-09-24 02:30:00,53.0,49.2,30.00,East,89,3.0,8.0,87,0.00,,,0.00,Wunderground v.1.15,2013-09-24 07:30:00,
2013-09-24 02:32:00,53.0,49.2,30.00,East,81,3.0,8.0,87,0.00,,,0.00,Wunderground v.1.15,2013-09-24 07:32:00,
2013-09-24 02:34:00,52.9,49.1,29.99,East,87,3.0,8.0,87,0.00,,,0.00,Wunderground v.1.15,2013-09-24 07:34:00,
2013-09-24 02:36:00,52.9,49.1,30.00,ENE,74,3.0,8.0,87,0.00,,,0.00,Wunderground v.1.15,2013-09-24 07:36:00,
2013-09-24 02:40:00,52.7,48.9,29.99,East,84,3.0,8.0,87,0.00,,,0.00,Wunderground v.1.15,2013-09-24 07:40:00,
2013-09-24 02:42:00,52.7,48.9,29.99,East,91,3.0,8.0,87,0.00,,,0.00,Wunderground v.1.15,2013-09-24 07:42:00,
2013-09-24 02:46:00,52.6,48.8,29.99,East,84,3.0,8.0,87,0.00,,,0.00,Wunderground v.1.15,2013-09-24 07:46:00,
2013-09-24 02:48:00,52.6,48.8,29.99,ENE,77,3.0,8.0,87,0.00,,,0.00,Wunderground v.1.15,2013-09-24 07:48:00,
2013-09-24 02:50:00,52.5,48.7,29.99,ENE,70,3.0,8.0,87,0.00,,,0.00,Wunderground v.1.15,2013-09-24 07:50:00,
2013-09-24 02:52:00,52.4,48.6,29.99,ENE,75,3.0,8.0,87,0.00,,,0.00,Wunderground v.1.15,2013-09-24 07:52:00,
2013-09-24 02:54:00,52.4,48.6,29.99,ENE,74,3.0,8.0,87,0.00,,,0.00,Wunderground v.1.15,2013-09-24 07:54:00,
2013-09-24 02:56:00,52.4,48.6,29.99,ENE,74,3.0,8.0,87,0.00,,,0.00,Wunderground v.1.15,2013-09-24 07:56:00,
2013-09-24 03:00:00,52.3,48.5,29.99,ENE,63,3.0,8.0,87,0.00,,,0.00,Wunderground v.1.15,2013-09-24 08:00:00,
2013-09-24 03:02:00,52.1,48.3,29.99,ENE,61,3.0,8.0,87,0.00,,,0.00,Wunderground v.1.15,2013-09-24 08:02:00,
2013-09-24 03:06:00,51.9,48.5,30.00,ENE,68,3.0,8.0,88,0.00,,,0.00,Wunderground v.1.15,2013-09-24 08:06:00,
2013-09-24 03:08:00,51.8,48.4,30.00,ENE,63,3.0,8.0,88,0.00,,,0.00,Wunderground v.1.15,2013-09-24 08:08:00,
2013-09-24 03:10:00,51.7,48.3,30.00,ENE,67,3.0,8.0,88,0.00,,,0.00,Wunderground v.1.15,2013-09-24 08:10:00,
2013-09-24 03:12:00,51.6,48.2,30.00,ENE,67,3.0,8.0,88,0.00,,,0.00,Wunderground v.1.15,2013-09-24 08:12:00,
2013-09-24 03:14:00,51.6,48.2,30.00,ENE,65,3.0,8.0,88,0.00,,,0.00,Wunderground v.1.15,2013-09-24 08:14:00,
2013-09-24 03:16:00,51.5,48.1,30.00,ENE,63,3.0,8.0,88,0.00,,,0.00,Wunderground v.1.15,2013-09-24 08:16:00,
2013-09-24 03:18:00,51.4,48.0,30.00,ENE,72,3.0,8.0,88,0.00,,,0.00,Wunderground v.1.15,2013-09-24 08:18:00,
2013-09-24 03:24:00,51.2,48.1,30.00,ENE,74,3.0,8.0,89,0.00,,,0.00,Wunderground v.1.15,2013-09-24 08:24:00,
2013-09-24 03:26:00,51.1,48.0,30.00,ENE,60,3.0,8.0,89,0.00,,,0.00,Wunderground v.1.15,2013-09-24 08:26:00,
2013-09-24 03:30:00,51.0,47.9,30.00,East,84,4.0,8.0,89,0.00,,,0.00,Wunderground v.1.15,2013-09-24 08:30:00,
2013-09-24 03:32:00,51.0,47.9,30.01,East,101,4.0,8.0,89,0.00,,,0.00,Wunderground v.1.15,2013-09-24 08:32:00,
2013-09-24 03:36:00,50.9,47.8,30.01,ENE,77,3.0,8.0,89,0.00,,,0.00,Wunderground v.1.15,2013-09-24 08:36:00,
2013-09-24 03:38:00,50.9,47.8,30.01,East,92,3.0,8.0,89,0.00,,,0.00,Wunderground v.1.15,2013-09-24 08:38:00,
2013-09-24 03:40:00,50.9,47.8,30.01,ENE,72,3.0,8.0,89,0.00,,,0.00,Wunderground v.1.15,2013-09-24 08:40:00,
2013-09-24 03:42:00,50.9,47.8,30.01,East,91,3.0,8.0,89,0.00,,,0.00,Wunderground v.1.15,2013-09-24 08:42:00,
2013-09-24 03:44:00,50.9,47.8,30.00,ENE,70,3.0,8.0,89,0.00,,,0.00,Wunderground v.1.15,2013-09-24 08:44:00,
2013-09-24 03:48:00,50.9,47.8,30.00,ENE,64,3.0,8.0,89,0.00,,,0.00,Wunderground v.1.15,2013-09-24 08:48:00,
2013-09-24 03:50:00,50.9,47.8,30.00,ENE,71,3.0,8.0,89,0.00,,,0.00,Wunderground v.1.15,2013-09-24 08:50:00,
2013-09-24 03:52:00,50.8,47.7,30.00,East,86,3.0,8.0,89,0.00,,,0.00,Wunderground v.1.15,2013-09-24 08:52:00,
2013-09-24 03:54:00,50.8,47.7,30.00,ENE,77,3.0,8.0,89,0.00,,,0.00,Wunderground v.1.15,2013-09-24 08:54:00,
2013-09-24 03:56:00,50.8,47.7,30.01,ENE,75,3.0,8.0,89,0.00,,,0.00,Wunderground v.1.15,2013-09-24 08:56:00,
2013-09-24 04:00:00,50.7,47.6,30.01,ENE,78,3.0,8.0,89,0.00,,,0.00,Wunderground v.1.15,2013-09-24 09:00:00,
2013-09-24 04:02:00,50.6,47.5,30.01,East,82,3.0,8.0,89,0.00,,,0.00,Wunderground v.1.15,2013-09-24 09:02:00,
2013-09-24 04:08:00,50.5,47.4,30.01,ENE,72,3.0,8.0,89,0.00,,,0.00,Wunderground v.1.15,2013-09-24 09:08:00,
2013-09-24 04:10:00,50.5,47.7,30.01,East,82,4.0,8.0,90,0.00,,,0.00,Wunderground v.1.15,2013-09-24 09:10:00,
2013-09-24 04:12:00,50.5,47.7,30.01,East,81,4.0,8.0,90,0.00,,,0.00,Wunderground v.1.15,2013-09-24 09:12:00,
2013-09-24 04:14:00,50.5,47.7,30.01,East,82,4.0,8.0,90,0.00,,,0.00,Wunderground v.1.15,2013-09-24 09:14:00,
2013-09-24 04:18:00,50.4,47.6,30.01,East,82,4.0,8.0,90,0.00,,,0.00,Wunderground v.1.15,2013-09-24 09:18:00,
2013-09-24 04:20:00,50.3,47.5,30.01,East,87,4.0,8.0,90,0.00,,,0.00,Wunderground v.1.15,2013-09-24 09:20:00,
2013-09-24 04:22:00,50.2,47.4,30.01,ENE,75,4.0,8.0,90,0.00,,,0.00,Wunderground v.1.15,2013-09-24 09:22:00,
2013-09-24 04:24:00,50.1,47.3,30.01,ENE,71,4.0,8.0,90,0.00,,,0.00,Wunderground v.1.15,2013-09-24 09:24:00,
2013-09-24 04:26:00,50.1,47.3,30.01,ENE,63,5.0,8.0,90,0.00,,,0.00,Wunderground v.1.15,2013-09-24 09:26:00,
2013-09-24 04:30:00,50.0,47.5,30.00,East,84,5.0,8.0,91,0.00,,,0.00,Wunderground v.1.15,2013-09-24 09:30:00,
2013-09-24 04:34:00,50.1,47.6,30.01,East,86,5.0,8.0,91,0.00,,,0.00,Wunderground v.1.15,2013-09-24 09:34:00,
2013-09-24 04:36:00,50.1,47.6,30.01,East,89,5.0,8.0,91,0.00,,,0.00,Wunderground v.1.15,2013-09-24 09:36:00,
2013-09-24 04:38:00,50.1,47.6,30.01,ENE,75,5.0,8.0,91,0.00,,,0.00,Wunderground v.1.15,2013-09-24 09:38:00,
2013-09-24 04:40:00,50.1,47.6,30.01,East,86,4.0,8.0,91,0.00,,,0.00,Wunderground v.1.15,2013-09-24 09:40:00,
2013-09-24 04:42:00,50.1,47.6,30.01,ENE,77,4.0,8.0,91,0.00,,,0.00,Wunderground v.1.15,2013-09-24 09:42:00,
2013-09-24 04:44:00,50.1,47.6,30.01,East,84,4.0,8.0,91,0.00,,,0.00,Wunderground v.1.15,2013-09-24 09:44:00,
2013-09-24 04:50:00,50.1,47.6,30.00,East,87,5.0,8.0,91,0.00,,,0.00,Wunderground v.1.15,2013-09-24 09:50:00,
2013-09-24 04:54:00,50.1,47.6,30.00,East,95,5.0,8.0,91,0.00,,,0.00,Wunderground v.1.15,2013-09-24 09:54:00,
2013-09-24 04:56:00,50.1,47.6,30.00,East,84,5.0,8.0,91,0.00,,,0.00,Wunderground v.1.15,2013-09-24 09:56:00,
2013-09-24 05:00:00,50.0,47.5,30.00,ENE,64,5.0,5.0,91,0.00,,,0.00,Wunderground v.1.15,2013-09-24 10:00:00,
2013-09-24 05:02:00,50.0,47.5,30.00,ESE,108,5.0,8.0,91,0.00,,,0.00,Wunderground v.1.15,2013-09-24 10:02:00,
2013-09-24 05:04:00,49.9,47.4,30.00,ENE,70,5.0,8.0,91,0.00,,,0.00,Wunderground v.1.15,2013-09-24 10:04:00,
2013-09-24 05:06:00,49.9,47.4,30.00,East,89,5.0,8.0,91,0.00,,,0.00,Wunderground v.1.15,2013-09-24 10:06:00,
2013-09-24 05:08:00,49.9,47.4,30.00,East,81,5.0,8.0,91,0.00,,,0.00,Wunderground v.1.15,2013-09-24 10:08:00,
2013-09-24 05:10:00,50.0,47.5,30.00,ESE,108,5.0,5.0,91,0.00,,,0.00,Wunderground v.1.15,2013-09-24 10:10:00,
2013-09-24 05:16:00,50.1,47.6,30.00,East,81,6.0,8.0,91,0.00,,,0.00,Wunderground v.1.15,2013-09-24 10:16:00,
2013-09-24 05:20:00,50.1,47.6,30.00,East,82,6.0,6.0,91,0.00,,,0.00,Wunderground v.1.15,2013-09-24 10:20:00,
2013-09-24 05:22:00,50.1,47.6,30.00,ENE,71,6.0,8.0,91,0.00,,,0.00,Wunderground v.1.15,2013-09-24 10:22:00,
2013-09-24 05:24:00,50.0,47.5,30.00,ENE,72,6.0,8.0,91,0.00,,,0.00,Wunderground v.1.15,2013-09-24 10:24:00,
2013-09-24 05:28:00,50.0,47.5,30.00,ESE,117,6.0,8.0,91,0.00,,,0.00,Wunderground v.1.15,2013-09-24 10:28:00,
2013-09-24 05:30:00,50.0,47.5,30.00,East,94,6.0,8.0,91,0.00,,,0.00,Wunderground v.1.15,2013-09-24 10:30:00,
2013-09-24 05:32:00,50.0,47.5,30.00,East,84,6.0,8.0,91,0.00,,,0.00,Wunderground v.1.15,2013-09-24 10:32:00,
2013-09-24 05:34:00,50.0,47.5,30.00,ENE,72,6.0,8.0,91,0.00,,,0.00,Wunderground v.1.15,2013-09-24 10:34:00,
2013-09-24 05:36:00,50.0,47.5,30.00,SE,136,6.0,8.0,91,0.00,,,0.00,Wunderground v.1.15,2013-09-24 10:36:00,
2013-09-24 05:38:00,49.9,47.4,30.00,ESE,120,6.0,8.0,91,0.00,,,0.00,Wunderground v.1.15,2013-09-24 10:38:00,
2013-09-24 05:40:00,49.9,47.7,30.00,East,88,6.0,8.0,92,0.00,,,0.00,Wunderground v.1.15,2013-09-24 10:40:00,
2013-09-24 05:44:00,49.8,47.6,30.00,East,88,6.0,8.0,92,0.00,,,0.00,Wunderground v.1.15,2013-09-24 10:44:00,
2013-09-24 05:48:00,49.7,47.5,30.00,East,93,7.0,8.0,92,0.00,,,0.00,Wunderground v.1.15,2013-09-24 10:48:00,
2013-09-24 05:50:00,49.7,47.5,30.00,ESE,104,7.0,8.0,92,0.00,,,0.00,Wunderground v.1.15,2013-09-24 10:50:00,
2013-09-24 05:52:00,49.6,47.4,30.00,ESE,103,7.0,8.0,92,0.00,,,0.00,Wunderground v.1.15,2013-09-24 10:52:00,
2013-09-24 05:54:00,49.7,47.5,30.00,East,79,7.0,8.0,92,0.00,,,0.00,Wunderground v.1.15,2013-09-24 10:54:00,
2013-09-24 05:58:00,49.7,47.5,30.00,ESE,103,7.0,8.0,92,0.00,,,0.00,Wunderground v.1.15,2013-09-24 10:58:00,
2013-09-24 06:00:00,49.7,47.5,30.00,ESE,105,7.0,8.0,92,0.00,,,0.00,Wunderground v.1.15,2013-09-24 11:00:00,
2013-09-24 06:02:00,49.6,47.4,30.00,ESE,121,7.0,8.0,92,0.00,,,0.00,Wunderground v.1.15,2013-09-24 11:02:00,
2013-09-24 06:08:00,49.4,47.2,30.00,East,82,6.0,8.0,92,0.00,,,0.00,Wunderground v.1.15,2013-09-24 11:08:00,
2013-09-24 06:12:00,49.3,47.1,30.00,East,82,6.0,8.0,92,0.00,,,0.00,Wunderground v.1.15,2013-09-24 11:12:00,
2013-09-24 06:14:00,49.3,47.1,30.00,ESE,102,6.0,8.0,92,0.00,,,0.00,Wunderground v.1.15,2013-09-24 11:14:00,
2013-09-24 06:20:00,49.2,47.3,30.00,East,91,6.0,8.0,93,0.00,,,0.00,Wunderground v.1.15,2013-09-24 11:20:00,
2013-09-24 06:22:00,49.1,47.2,30.00,ENE,63,6.0,8.0,93,0.00,,,0.00,Wunderground v.1.15,2013-09-24 11:22:00,
2013-09-24 06:26:00,49.1,47.2,29.99,East,91,6.0,8.0,93,0.00,,,0.00,Wunderground v.1.15,2013-09-24 11:26:00,
2013-09-24 06:28:00,49.2,47.3,30.00,East,93,7.0,8.0,93,0.00,,,0.00,Wunderground v.1.15,2013-09-24 11:28:00,
2013-09-24 06:30:00,49.2,47.3,30.00,East,92,7.0,7.0,93,0.00,,,0.00,Wunderground v.1.15,2013-09-24 11:30:00,
2013-09-24 06:32:00,49.2,47.3,30.00,ESE,113,7.0,8.0,93,0.00,,,0.00,Wunderground v.1.15,2013-09-24 11:32:00,
2013-09-24 06:34:00,49.2,47.3,30.00,ESE,108,6.0,8.0,93,0.00,,,0.00,Wunderground v.1.15,2013-09-24 11:34:00,
2013-09-24 06:36:00,49.2,47.3,30.00,East,89,6.0,8.0,93,0.00,,,0.00,Wunderground v.1.15,2013-09-24 11:36:00,
2013-09-24 06:40:00,49.1,47.2,30.00,East,89,6.0,6.0,93,0.00,,,0.00,Wunderground v.1.15,2013-09-24 11:40:00,
2013-09-24 06:42:00,49.1,47.2,30.00,ESE,105,6.0,8.0,93,0.00,,,0.00,Wunderground v.1.15,2013-09-24 11:42:00,
2013-09-24 06:44:00,49.1,47.2,30.00,East,88,6.0,8.0,93,0.00,,,0.00,Wunderground v.1.15,2013-09-24 11:44:00,
2013-09-24 06:48:00,49.1,47.2,30.00,East,86,6.0,8.0,93,0.00,,,0.00,Wunderground v.1.15,2013-09-24 11:48:00,
2013-09-24 06:50:00,49.1,47.2,30.00,East,85,6.0,6.0,93,0.00,,,0.00,Wunderground v.1.15,2013-09-24 11:50:00,
2013-09-24 06:52:00,49.1,47.2,30.00,ENE,75,6.0,8.0,93,0.00,,,0.00,Wunderground v.1.15,2013-09-24 11:52:00,
2013-09-24 06:56:00,49.2,47.3,30.00,East,86,6.0,8.0,93,0.00,,,0.00,Wunderground v.1.15,2013-09-24 11:56:00,
2013-09-24 06:58:00,49.3,47.4,30.00,ESE,103,6.0,8.0,93,0.00,,,0.00,Wunderground v.1.15,2013-09-24 11:58:00,
2013-09-24 07:00:00,49.3,47.4,30.00,ESE,106,6.0,8.0,93,0.00,,,0.00,Wunderground v.1.15,2013-09-24 12:00:00,
2013-09-24 07:04:00,49.7,47.8,29.99,ESE,113,6.0,8.0,93,0.00,,,0.00,Wunderground v.1.15,2013-09-24 12:04:00,
2013-09-24 07:08:00,50.0,48.1,29.99,East,101,6.0,8.0,93,0.00,,,0.00,Wunderground v.1.15,2013-09-24 12:08:00,
2013-09-24 07:10:00,50.2,48.0,30.00,ESE,120,6.0,6.0,92,0.00,,,0.00,Wunderground v.1.15,2013-09-24 12:10:00,
2013-09-24 07:14:00,50.5,48.3,29.99,East,97,6.0,8.0,92,0.00,,,0.00,Wunderground v.1.15,2013-09-24 12:14:00,
2013-09-24 07:16:00,50.6,48.4,30.00,ESE,120,6.0,8.0,92,0.00,,,0.00,Wunderground v.1.15,2013-09-24 12:16:00,
2013-09-24 07:18:00,50.8,48.3,30.00,NE,54,6.0,8.0,91,0.00,,,0.00,Wunderground v.1.15,2013-09-24 12:18:00,
2013-09-24 07:20:00,50.9,48.4,30.00,ENE,71,6.0,8.0,91,0.00,,,0.00,Wunderground v.1.15,2013-09-24 12:20:00,
2013-09-24 07:22:00,51.1,48.6,30.00,East,79,6.0,8.0,91,0.00,,,0.00,Wunderground v.1.15,2013-09-24 12:22:00,
2013-09-24 07:26:00,51.4,48.9,30.00,East,99,6.0,8.0,91,0.00,,,0.00,Wunderground v.1.15,2013-09-24 12:26:00,
2013-09-24 07:28:00,51.6,48.8,30.00,ESE,117,7.0,8.0,90,0.00,,,0.00,Wunderground v.1.15,2013-09-24 12:28:00,
2013-09-24 07:30:00,51.7,48.9,30.00,ESE,114,7.0,7.0,90,0.00,,,0.00,Wunderground v.1.15,2013-09-24 12:30:00,
2013-09-24 07:32:00,51.9,49.1,30.00,ENE,72,7.0,8.0,90,0.00,,,0.00,Wunderground v.1.15,2013-09-24 12:32:00,
2013-09-24 07:34:00,52.0,49.2,30.00,East,94,7.0,8.0,90,0.00,,,0.00,Wunderground v.1.15,2013-09-24 12:34:00,
2013-09-24 07:36:00,52.2,49.4,30.00,NE,54,7.0,8.0,90,0.00,,,0.00,Wunderground v.1.15,2013-09-24 12:36:00,
2013-09-24 07:38:00,52.3,49.2,30.00,ESE,115,6.0,9.0,89,0.00,,,0.00,Wunderground v.1.15,2013-09-24 12:38:00,
2013-09-24 07:40:00,52.5,49.4,30.00,ESE,117,7.0,7.0,89,0.00,,,0.00,Wunderground v.1.15,2013-09-24 12:40:00,
2013-09-24 07:42:00,52.6,49.4,30.00,SE,124,7.0,8.0,89,0.00,,,0.00,Wunderground v.1.15,2013-09-24 12:42:00,
2013-09-24 07:46:00,52.9,49.4,30.00,ESE,117,7.0,8.0,88,0.00,,,0.00,Wunderground v.1.15,2013-09-24 12:46:00,
2013-09-24 07:48:00,53.0,49.5,30.00,East,101,7.0,8.0,88,0.00,,,0.00,Wunderground v.1.15,2013-09-24 12:48:00,
2013-09-24 07:50:00,53.2,49.7,30.00,ENE,67,7.0,7.0,88,0.00,,,0.00,Wunderground v.1.15,2013-09-24 12:50:00,
2013-09-24 07:52:00,53.3,49.8,30.00,ESE,112,7.0,8.0,88,0.00,,,0.00,Wunderground v.1.15,2013-09-24 12:52:00,
2013-09-24 07:56:00,53.6,49.8,30.00,ESE,119,7.0,9.0,87,0.00,,,0.00,Wunderground v.1.15,2013-09-24 12:56:00,
2013-09-24 07:58:00,53.7,49.9,30.00,East,82,8.0,9.0,87,0.00,,,0.00,Wunderground v.1.15,2013-09-24 12:58:00,
2013-09-24 08:00:00,53.8,50.0,30.00,ENE,59,8.0,10.0,87,0.00,,,0.00,Wunderground v.1.15,2013-09-24 13:00:00,
2013-09-24 08:02:00,53.9,49.8,30.00,ESE,103,8.0,10.0,86,0.00,,,0.00,Wunderground v.1.15,2013-09-24 13:02:00,
2013-09-24 08:04:00,54.0,49.9,30.00,East,86,9.0,10.0,86,0.00,,,0.00,Wunderground v.1.15,2013-09-24 13:04:00,
2013-09-24 08:06:00,54.2,50.1,30.00,East,92,9.0,10.0,86,0.00,,,0.00,Wunderground v.1.15,2013-09-24 13:06:00,
2013-09-24 08:08:00,54.3,50.2,30.00,East,85,9.0,10.0,86,0.00,,,0.00,Wunderground v.1.15,2013-09-24 13:08:00,
2013-09-24 08:10:00,54.5,50.1,30.00,ENE,77,9.0,10.0,85,0.00,,,0.00,Wunderground v.1.15,2013-09-24 13:10:00,
2013-09-24 08:12:00,54.6,50.2,30.00,ESE,114,9.0,10.0,85,0.00,,,0.00,Wunderground v.1.15,2013-09-24 13:12:00,
2013-09-24 08:16:00,54.8,50.4,30.00,East,88,9.0,12.0,85,0.00,,,0.00,Wunderground v.1.15,2013-09-24 13:16:00,
2013-09-24 08:22:00,55.3,50.5,30.00,SE,124,10.0,11.0,84,0.00,,,0.00,Wunderground v.1.15,2013-09-24 13:22:00,
2013-09-24 08:26:00,55.6,50.5,29.99,East,96,10.0,14.0,83,0.00,,,0.00,Wunderground v.1.15,2013-09-24 13:26:00,
2013-09-24 08:28:00,55.7,50.6,30.00,ENE,72,10.0,14.0,83,0.00,,,0.00,Wunderground v.1.15,2013-09-24 13:28:00,
2013-09-24 08:30:00,55.8,50.4,30.00,NE,41,10.0,10.0,82,0.00,,,0.00,Wunderground v.1.15,2013-09-24 13:30:00,
2013-09-24 08:32:00,56.0,50.6,30.00,East,100,10.0,10.0,82,0.00,,,0.00,Wunderground v.1.15,2013-09-24 13:32:00,
2013-09-24 08:34:00,56.2,50.8,29.99,ESE,113,10.0,12.0,82,0.00,,,0.00,Wunderground v.1.15,2013-09-24 13:34:00,
2013-09-24 08:38:00,56.5,50.7,30.00,ESE,107,10.0,12.0,81,0.00,,,0.00,Wunderground v.1.15,2013-09-24 13:38:00,
2013-09-24 08:40:00,56.6,50.8,30.00,ENE,70,10.0,10.0,81,0.00,,,0.00,Wunderground v.1.15,2013-09-24 13:40:00,
2013-09-24 08:44:00,57.1,51.0,29.99,East,89,9.0,10.0,80,0.00,,,0.00,Wunderground v.1.15,2013-09-24 13:44:00,
2013-09-24 08:46:00,57.2,51.1,29.99,East,84,10.0,11.0,80,0.00,,,0.00,Wunderground v.1.15,2013-09-24 13:46:00,
2013-09-24 08:52:00,57.7,51.2,29.99,East,82,10.0,10.0,79,0.00,,,0.00,Wunderground v.1.15,2013-09-24 13:52:00,
2013-09-24 08:54:00,57.9,51.1,29.99,East,95,10.0,10.0,78,0.00,,,0.00,Wunderground v.1.15,2013-09-24 13:54:00,
2013-09-24 08:58:00,58.2,51.4,29.99,ESE,103,10.0,10.0,78,0.00,,,0.00,Wunderground v.1.15,2013-09-24 13:58:00,
2013-09-24 09:00:00,58.4,51.6,30.00,East,82,10.0,10.0,78,0.00,,,0.00,Wunderground v.1.15,2013-09-24 14:00:00,
2013-09-24 09:06:00,58.9,51.3,30.00,ESE,114,10.0,12.0,76,0.00,,,0.00,Wunderground v.1.15,2013-09-24 14:06:00,
2013-09-24 09:08:00,59.1,51.5,29.99,ESE,117,10.0,12.0,76,0.00,,,0.00,Wunderground v.1.15,2013-09-24 14:08:00,
2013-09-24 09:10:00,59.3,51.4,29.99,East,88,10.0,10.0,75,0.00,,,0.00,Wunderground v.1.15,2013-09-24 14:10:00,
2013-09-24 09:12:00,59.4,51.5,29.99,ENE,71,10.0,10.0,75,0.00,,,0.00,Wunderground v.1.15,2013-09-24 14:12:00,
2013-09-24 09:14:00,59.6,52.0,29.99,ENE,63,10.0,10.0,76,0.00,,,0.00,Wunderground v.1.15,2013-09-24 14:14:00,
2013-09-24 09:16:00,59.7,51.8,29.99,ESE,103,10.0,14.0,75,0.00,,,0.00,Wunderground v.1.15,2013-09-24 14:16:00,
2013-09-24 09:18:00,59.8,51.9,29.99,ENE,65,10.0,14.0,75,0.00,,,0.00,Wunderground v.1.15,2013-09-24 14:18:00,
2013-09-24 09:24:00,60.3,52.3,29.99,ESE,112,10.0,11.0,75,0.00,,,0.00,Wunderground v.1.15,2013-09-24 14:24:00,
2013-09-24 09:26:00,60.5,52.2,29.99,East,86,10.0,11.0,74,0.00,,,0.00,Wunderground v.1.15,2013-09-24 14:26:00,
2013-09-24 09:30:00,60.6,51.9,29.99,SE,131,10.0,10.0,73,0.00,,,0.00,Wunderground v.1.15,2013-09-24 14:30:00,
2013-09-24 09:32:00,60.7,52.0,29.99,ENE,77,10.0,10.0,73,0.00,,,0.00,Wunderground v.1.15,2013-09-24 14:32:00,
2013-09-24 09:36:00,61.0,51.5,29.99,East,93,10.0,10.0,71,0.00,,,0.00,Wunderground v.1.15,2013-09-24 14:36:00,
2013-09-24 09:38:00,61.1,52.0,29.99,ESE,113,10.0,10.0,72,0.00,,,0.00,Wunderground v.1.15,2013-09-24 14:38:00,
2013-09-24 09:42:00,61.0,51.5,29.99,East,85,11.0,11.0,71,0.00,,,0.00,Wunderground v.1.15,2013-09-24 14:42:00,
2013-09-24 09:46:00,61.5,52.4,29.99,East,89,10.0,11.0,72,0.00,,,0.00,Wunderground v.1.15,2013-09-24 14:46:00,
2013-09-24 09:48:00,61.8,52.7,29.99,ESE,117,9.0,11.0,72,0.00,,,0.00,Wunderground v.1.15,2013-09-24 14:48:00,
2013-09-24 09:50:00,61.9,52.4,29.99,SE,124,9.0,9.0,71,0.00,,,0.00,Wunderground v.1.15,2013-09-24 14:50:00,
2013-09-24 09:52:00,62.2,52.7,29.99,SE,139,8.0,9.0,71,0.00,,,0.00,Wunderground v.1.15,2013-09-24 14:52:00,
2013-09-24 09:54:00,62.3,52.8,29.99,ESE,103,8.0,9.0,71,0.00,,,0.00,Wunderground v.1.15,2013-09-24 14:54:00,
2013-09-24 09:58:00,62.4,52.5,29.99,ESE,103,8.0,9.0,70,0.00,,,0.00,Wunderground v.1.15,2013-09-24 14:58:00,
2013-09-24 10:00:00,62.6,53.1,29.99,East,95,8.0,11.0,71,0.00,,,0.00,Wunderground v.1.15,2013-09-24 15:00:00,
2013-09-24 10:04:00,62.7,52.8,29.99,ENE,63,8.0,11.0,70,0.00,,,0.00,Wunderground v.1.15,2013-09-24 15:04:00,
2013-09-24 10:08:00,62.8,52.5,29.99,ESE,113,8.0,11.0,69,0.00,,,0.00,Wunderground v.1.15,2013-09-24 15:08:00,
2013-09-24 10:10:00,62.8,52.9,29.99,East,79,9.0,9.0,70,0.00,,,0.00,Wunderground v.1.15,2013-09-24 15:10:00,
2013-09-24 10:14:00,63.5,53.1,29.99,ESE,110,8.0,9.0,69,0.00,,,0.00,Wunderground v.1.15,2013-09-24 15:14:00,
2013-09-24 10:18:00,63.6,52.8,29.99,SE,132,9.0,10.0,68,0.00,,,0.00,Wunderground v.1.15,2013-09-24 15:18:00,
2013-09-24 10:20:00,63.6,52.8,29.99,ESE,106,9.0,9.0,68,0.00,,,0.00,Wunderground v.1.15,2013-09-24 15:20:00,
2013-09-24 10:24:00,63.9,53.5,29.99,East,95,9.0,14.0,69,0.00,,,0.00,Wunderground v.1.15,2013-09-24 15:24:00,
2013-09-24 10:26:00,64.0,52.8,29.99,ESE,108,9.0,14.0,67,0.00,,,0.00,Wunderground v.1.15,2013-09-24 15:26:00,
2013-09-24 10:30:00,64.1,52.9,29.99,East,98,9.0,12.0,67,0.00,,,0.00,Wunderground v.1.15,2013-09-24 15:30:00,
2013-09-24 10:32:00,64.2,52.6,29.98,SE,134,9.0,12.0,66,0.00,,,0.00,Wunderground v.1.15,2013-09-24 15:32:00,
2013-09-24 10:34:00,64.4,53.6,29.98,East,96,8.0,12.0,68,0.00,,,0.00,Wunderground v.1.15,2013-09-24 15:34:00,
2013-09-24 10:40:00,64.6,53.8,29.98,ENE,65,9.0,9.0,68,0.00,,,0.00,Wunderground v.1.15,2013-09-24 15:40:00,
2013-09-24 10:46:00,65.1,53.0,29.98,ENE,66,8.0,9.0,65,0.00,,,0.00,Wunderground v.1.15,2013-09-24 15:46:00,
2013-09-24 10:48:00,65.2,53.1,29.98,ENE,78,8.0,9.0,65,0.00,,,0.00,Wunderground v.1.15,2013-09-24 15:48:00,
2013-09-24 10:52:00,65.3,53.2,29.98,East,87,8.0,11.0,65,0.00,,,0.00,Wunderground v.1.15,2013-09-24 15:52:00,
2013-09-24 10:54:00,65.4,53.3,29.98,ENE,58,8.0,11.0,65,0.00,,,0.00,Wunderground v.1.15,2013-09-24 15:54:00,
2013-09-24 11:00:00,65.8,53.3,29.98,ENE,71,7.0,7.0,64,0.00,,,0.00,Wunderground v.1.15,2013-09-24 16:00:00,
2013-09-24 11:04:00,65.9,53.8,29.98,ENE,73,7.0,8.0,65,0.00,,,0.00,Wunderground v.1.15,2013-09-24 16:04:00,
2013-09-24 11:06:00,66.2,54.5,29.98,East,97,7.0,8.0,66,0.00,,,0.00,Wunderground v.1.15,2013-09-24 16:06:00,
2013-09-24 11:08:00,66.4,53.8,29.98,East,95,7.0,8.0,64,0.00,,,0.00,Wunderground v.1.15,2013-09-24 16:08:00,
2013-09-24 11:10:00,66.5,54.4,29.98,East,95,7.0,7.0,65,0.00,,,0.00,Wunderground v.1.15,2013-09-24 16:10:00,
2013-09-24 11:12:00,66.6,54.0,29.98,ESE,116,6.0,8.0,64,0.00,,,0.00,Wunderground v.1.15,2013-09-24 16:12:00,
2013-09-24 11:14:00,66.7,53.7,29.98,ENE,58,7.0,10.0,63,0.00,,,0.00,Wunderground v.1.15,2013-09-24 16:14:00,
2013-09-24 11:18:00,67.2,54.2,29.97,East,90,7.0,10.0,63,0.00,,,0.00,Wunderground v.1.15,2013-09-24 16:18:00,
2013-09-24 11:20:00,67.3,54.3,29.97,ESE,110,7.0,10.0,63,0.00,,,0.00,Wunderground v.1.15,2013-09-24 16:20:00,
2013-09-24 11:22:00,67.4,54.4,29.97,ESE,106,8.0,10.0,63,0.00,,,0.00,Wunderground v.1.15,2013-09-24 16:22:00,
2013-09-24 11:26:00,68.0,54.0,29.97,East,101,8.0,12.0,61,0.00,,,0.00,Wunderground v.1.15,2013-09-24 16:26:00,
2013-09-24 11:30:00,68.1,54.1,29.97,East,79,10.0,13.0,61,0.00,,,0.00,Wunderground v.1.15,2013-09-24 16:30:00,
2013-09-24 11:32:00,68.0,53.6,29.97,ENE,74,11.0,13.0,60,0.00,,,0.00,Wunderground v.1.15,2013-09-24 16:32:00,
2013-09-24 11:34:00,68.1,54.1,29.97,East,98,11.0,13.0,61,0.00,,,0.00,Wunderground v.1.15,2013-09-24 16:34:00,
2013-09-24 11:38:00,68.3,53.9,29.96,NE,54,10.0,13.0,60,0.00,,,0.00,Wunderground v.1.15,2013-09-24 16:38:00,
2013-09-24 11:42:00,68.9,54.0,29.96,East,94,10.0,10.0,59,0.00,,,0.00,Wunderground v.1.15,2013-09-24 16:42:00,
2013-09-24 11:44:00,69.4,54.4,29.96,ENE,77,10.0,10.0,59,0.00,,,0.00,Wunderground v.1.15,2013-09-24 16:44:00,
2013-09-24 11:46:00,69.4,53.5,29.96,ENE,68,11.0,11.0,57,0.00,,,0.00,Wunderground v.1.15,2013-09-24 16:46:00,
2013-09-24 11:48:00,69.5,54.1,29.96,ENE,76,11.0,11.0,58,0.00,,,0.00,Wunderground v.1.15,2013-09-24 16:48:00,
2013-09-24 11:50:00,69.4,53.0,29.96,ESE,109,11.0,11.0,56,0.00,,,0.00,Wunderground v.1.15,2013-09-24 16:50:00,
2013-09-24 11:52:00,69.4,53.5,29.96,ESE,105,11.0,12.0,57,0.00,,,0.00,Wunderground v.1.15,2013-09-24 16:52:00,
2013-09-24 11:54:00,69.3,53.4,29.96,ESE,105,11.0,14.0,57,0.00,,,0.00,Wunderground v.1.15,2013-09-24 16:54:00,
2013-09-24 11:58:00,69.6,54.2,29.96,ESE,115,11.0,14.0,58,0.00,,,0.00,Wunderground v.1.15,2013-09-24 16:58:00,
2013-09-24 12:00:00,69.7,53.8,29.96,East,101,11.0,13.0,57,0.00,,,0.00,Wunderground v.1.15,2013-09-24 17:00:00,
2013-09-24 12:06:00,69.9,53.5,29.96,East,94,11.0,16.0,56,0.00,,,0.00,Wunderground v.1.15,2013-09-24 17:06:00,
2013-09-24 12:08:00,70.0,53.6,29.96,ESE,105,11.0,16.0,56,0.00,,,0.00,Wunderground v.1.15,2013-09-24 17:08:00,
2013-09-24 12:12:00,70.0,54.1,29.96,ESE,105,11.0,13.0,57,0.00,,,0.00,Wunderground v.1.15,2013-09-24 17:12:00,
2013-09-24 12:16:00,70.3,53.9,29.96,East,86,11.0,13.0,56,0.00,,,0.00,Wunderground v.1.15,2013-09-24 17:16:00,
2013-09-24 12:18:00,70.4,53.5,29.96,East,96,11.0,13.0,55,0.00,,,0.00,Wunderground v.1.15,2013-09-24 17:18:00,
2013-09-24 12:20:00,70.5,53.6,29.95,East,98,11.0,14.0,55,0.00,,,0.00,Wunderground v.1.15,2013-09-24 17:20:00,
2013-09-24 12:26:00,71.0,54.5,29.96,ESE,105,9.0,14.0,56,0.00,,,0.00,Wunderground v.1.15,2013-09-24 17:26:00,
2013-09-24 12:28:00,70.8,53.3,29.96,ESE,120,10.0,14.0,54,0.00,,,0.00,Wunderground v.1.15,2013-09-24 17:28:00,
2013-09-24 12:34:00,70.6,52.6,29.95,ENE,78,11.0,14.0,53,0.00,,,0.00,Wunderground v.1.15,2013-09-24 17:34:00,
2013-09-24 12:36:00,70.6,53.1,29.95,East,81,12.0,14.0,54,0.00,,,0.00,Wunderground v.1.15,2013-09-24 17:36:00,
2013-09-24 12:38:00,70.5,53.1,29.95,ESE,115,11.0,14.0,54,0.00,,,0.00,Wunderground v.1.15,2013-09-24 17:38:00,
2013-09-24 12:40:00,70.9,53.9,29.95,ENE,76,11.0,12.0,55,0.00,,,0.00,Wunderground v.1.15,2013-09-24 17:40:00,
2013-09-24 12:44:00,71.3,53.3,29.95,SE,131,10.0,12.0,53,0.00,,,0.00,Wunderground v.1.15,2013-09-24 17:44:00,
2013-09-24 12:46:00,71.5,54.0,29.95,East,86,10.0,12.0,54,0.00,,,0.00,Wunderground v.1.15,2013-09-24 17:46:00,
2013-09-24 12:48:00,71.8,53.2,29.95,East,98,10.0,12.0,52,0.00,,,0.00,Wunderground v.1.15,2013-09-24 17:48:00,
2013-09-24 12:50:00,71.5,53.5,29.95,East,92,10.0,10.0,53,0.00,,,0.00,Wunderground v.1.15,2013-09-24 17:50:00,
2013-09-24 12:52:00,71.2,53.7,29.95,East,88,10.0,11.0,54,0.00,,,0.00,Wunderground v.1.15,2013-09-24 17:52:00,
2013-09-24 12:56:00,71.5,53.5,29.95,ENE,68,10.0,12.0,53,0.00,,,0.00,Wunderground v.1.15,2013-09-24 17:56:00,
2013-09-24 12:58:00,71.9,54.3,29.95,SE,124,10.0,12.0,54,0.00,,,0.00,Wunderground v.1.15,2013-09-24 17:58:00,
2013-09-24 13:04:00,71.5,54.5,29.95,SE,131,10.0,13.0,55,0.00,,,0.00,Wunderground v.1.15,2013-09-24 18:04:00,
2013-09-24 13:06:00,71.4,53.9,29.95,ENE,68,10.0,13.0,54,0.00,,,0.00,Wunderground v.1.15,2013-09-24 18:06:00,
2013-09-24 13:08:00,71.4,53.4,29.94,NE,49,9.0,13.0,53,0.00,,,0.00,Wunderground v.1.15,2013-09-24 18:08:00,
2013-09-24 13:12:00,72.2,54.1,29.94,ESE,120,7.0,11.0,53,0.00,,,0.00,Wunderground v.1.15,2013-09-24 18:12:00,
2013-09-24 13:16:00,72.2,53.6,29.94,ENE,65,9.0,12.0,52,0.00,,,0.00,Wunderground v.1.15,2013-09-24 18:16:00,
2013-09-24 13:18:00,71.8,53.2,29.94,ENE,75,9.0,12.0,52,0.00,,,0.00,Wunderground v.1.15,2013-09-24 18:18:00,
2013-09-24 13:20:00,71.9,53.8,29.94,ESE,108,9.0,9.0,53,0.00,,,0.00,Wunderground v.1.15,2013-09-24 18:20:00,
2013-09-24 13:22:00,72.0,53.4,29.94,East,90,9.0,9.0,52,0.00,,,0.00,Wunderground v.1.15,2013-09-24 18:22:00,
2013-09-24 13:24:00,72.2,53.6,29.94,SE,136,9.0,9.0,52,0.00,,,0.00,Wunderground v.1.15,2013-09-24 18:24:00,
2013-09-24 13:26:00,71.9,53.3,29.94,East,94,8.0,9.0,52,0.00,,,0.00,Wunderground v.1.15,2013-09-24 18:26:00,
2013-09-24 13:28:00,71.9,53.8,29.94,ENE,78,8.0,12.0,53,0.00,,,0.00,Wunderground v.1.15,2013-09-24 18:28:00,
2013-09-24 13:30:00,71.8,53.7,29.94,ENE,70,8.0,8.0,53,0.00,,,0.00,Wunderground v.1.15,2013-09-24 18:30:00,
2013-09-24 13:32:00,71.8,53.7,29.94,East,93,8.0,8.0,53,0.00,,,0.00,Wunderground v.1.15,2013-09-24 18:32:00,
2013-09-24 13:34:00,72.1,54.0,29.94,ENE,78,8.0,12.0,53,0.00,,,0.00,Wunderground v.1.15,2013-09-24 18:34:00,
2013-09-24 13:40:00,71.9,53.3,29.94,ENE,76,10.0,11.0,52,0.00,,,0.00,Wunderground v.1.15,2013-09-24 18:40:00,
2013-09-24 13:44:00,71.6,53.0,29.93,East,101,10.0,11.0,52,0.00,,,0.00,Wunderground v.1.15,2013-09-24 18:44:00,
2013-09-24 13:46:00,71.8,53.7,29.93,ENE,65,10.0,11.0,53,0.00,,,0.00,Wunderground v.1.15,2013-09-24 18:46:00,
2013-09-24 13:48:00,72.2,54.1,29.93,ESE,117,9.0,11.0,53,0.00,,,0.00,Wunderground v.1.15,2013-09-24 18:48:00,
2013-09-24 13:52:00,72.2,53.6,29.93,SE,146,8.0,8.0,52,0.00,,,0.00,Wunderground v.1.15,2013-09-24 18:52:00,
2013-09-24 13:56:00,72.7,54.1,29.93,ESE,119,9.0,9.0,52,0.00,,,0.00,Wunderground v.1.15,2013-09-24 18:56:00,
2013-09-24 13:58:00,72.9,54.2,29.93,ENE,65,9.0,9.0,52,0.00,,,0.00,Wunderground v.1.15,2013-09-24 18:58:00,
2013-09-24 14:00:00,72.8,53.6,29.93,SE,134,8.0,8.0,51,0.00,,,0.00,Wunderground v.1.15,2013-09-24 19:00:00,
2013-09-24 14:02:00,72.6,52.9,29.93,East,89,8.0,8.0,50,0.00,,,0.00,Wunderground v.1.15,2013-09-24 19:02:00,
2013-09-24 14:08:00,72.7,53.0,29.93,ESE,109,8.0,12.0,50,0.00,,,0.00,Wunderground v.1.15,2013-09-24 19:08:00,
2013-09-24 14:10:00,72.6,52.9,29.93,SSE,155,8.0,8.0,50,0.00,,,0.00,Wunderground v.1.15,2013-09-24 19:10:00,
2013-09-24 14:14:00,72.3,53.2,29.92,ESE,115,8.0,24.0,51,0.00,,,0.00,Wunderground v.1.15,2013-09-24 19:14:00,
2013-09-24 14:18:00,73.1,53.9,29.92,NE,55,8.0,24.0,51,0.00,,,0.00,Wunderground v.1.15,2013-09-24 19:18:00,
2013-09-24 14:20:00,72.8,53.1,29.93,East,94,9.0,9.0,50,0.00,,,0.00,Wunderground v.1.15,2013-09-24 19:20:00,
2013-09-24 14:22:00,72.5,52.8,29.92,East,97,9.0,9.0,50,0.00,,,0.00,Wunderground v.1.15,2013-09-24 19:22:00,
2013-09-24 14:24:00,72.7,53.5,29.92,ENE,67,10.0,10.0,51,0.00,,,0.00,Wunderground v.1.15,2013-09-24 19:24:00,
2013-09-24 14:28:00,72.9,53.2,29.92,ESE,105,10.0,12.0,50,0.00,,,0.00,Wunderground v.1.15,2013-09-24 19:28:00,
2013-09-24 14:30:00,72.6,52.9,29.92,East,84,9.0,9.0,50,0.00,,,0.00,Wunderground v.1.15,2013-09-24 19:30:00,
2013-09-24 14:32:00,72.6,53.4,29.92,ESE,103,10.0,10.0,51,0.00,,,0.00,Wunderground v.1.15,2013-09-24 19:32:00,
2013-09-24 14:36:00,72.9,53.2,29.92,ESE,103,10.0,11.0,50,0.00,,,0.00,Wunderground v.1.15,2013-09-24 19:36:00,
2013-09-24 14:38:00,73.0,52.1,29.92,ESE,105,9.0,11.0,48,0.00,,,0.00,Wunderground v.1.15,2013-09-24 19:38:00,
2013-09-24 14:40:00,72.9,52.6,29.92,ESE,122,9.0,9.0,49,0.00,,,0.00,Wunderground v.1.15,2013-09-24 19:40:00,
2013-09-24 14:42:00,73.1,53.4,29.92,ENE,68,9.0,9.0,50,0.00,,,0.00,Wunderground v.1.15,2013-09-24 19:42:00,
2013-09-24 14:46:00,73.3,53.0,29.92,NNW,340,9.0,16.0,49,0.00,,,0.00,Wunderground v.1.15,2013-09-24 19:46:00,
2013-09-24 14:48:00,73.1,52.8,29.92,ESE,110,9.0,16.0,49,0.00,,,0.00,Wunderground v.1.15,2013-09-24 19:48:00,
2013-09-24 14:50:00,73.1,52.8,29.92,ESE,108,9.0,9.0,49,0.00,,,0.00,Wunderground v.1.15,2013-09-24 19:50:00,
2013-09-24 14:52:00,73.3,53.0,29.91,ESE,115,9.0,9.0,49,0.00,,,0.00,Wunderground v.1.15,2013-09-24 19:52:00,
2013-09-24 14:58:00,73.5,52.0,29.91,East,85,9.0,10.0,47,0.00,,,0.00,Wunderground v.1.15,2013-09-24 19:58:00,
2013-09-24 15:00:00,73.6,52.7,29.90,SE,128,10.0,13.0,48,0.00,,,0.00,Wunderground v.1.15,2013-09-24 20:00:00,
2013-09-24 15:02:00,73.5,53.2,29.90,ENE,75,10.0,13.0,49,0.00,,,0.00,Wunderground v.1.15,2013-09-24 20:02:00,
2013-09-24 15:06:00,73.5,53.2,29.89,East,79,11.0,14.0,49,0.00,,,0.00,Wunderground v.1.15,2013-09-24 20:06:00,
2013-09-24 15:10:00,73.7,52.2,29.89,ENE,61,11.0,11.0,47,0.00,,,0.00,Wunderground v.1.15,2013-09-24 20:10:00,
2013-09-24 15:12:00,73.7,52.2,29.89,NE,49,11.0,14.0,47,0.00,,,0.00,Wunderground v.1.15,2013-09-24 20:12:00,
2013-09-24 15:14:00,73.5,52.0,29.89,East,83,11.0,14.0,47,0.00,,,0.00,Wunderground v.1.15,2013-09-24 20:14:00,
2013-09-24 15:18:00,73.6,52.1,29.90,East,81,10.0,14.0,47,0.00,,,0.00,Wunderground v.1.15,2013-09-24 20:18:00,
2013-09-24 15:20:00,73.7,52.2,29.89,ENE,68,10.0,11.0,47,0.00,,,0.00,Wunderground v.1.15,2013-09-24 20:20:00,
2013-09-24 15:22:00,73.9,51.8,29.90,East,86,11.0,11.0,46,0.00,,,0.00,Wunderground v.1.15,2013-09-24 20:22:00,
2013-09-24 15:26:00,73.5,52.6,29.90,ESE,103,10.0,11.0,48,0.00,,,0.00,Wunderground v.1.15,2013-09-24 20:26:00,
2013-09-24 15:32:00,73.7,52.2,29.90,ENE,62,10.0,10.0,47,0.00,,,0.00,Wunderground v.1.15,2013-09-24 20:32:00,
2013-09-24 15:34:00,73.7,52.2,29.90,ENE,75,9.0,10.0,47,0.00,,,0.00,Wunderground v.1.15,2013-09-24 20:34:00,
2013-09-24 15:38:00,74.0,51.9,29.90,SE,133,10.0,10.0,46,0.00,,,0.00,Wunderground v.1.15,2013-09-24 20:38:00,
2013-09-24 15:42:00,74.1,52.6,29.90,East,96,9.0,12.0,47,0.00,,,0.00,Wunderground v.1.15,2013-09-24 20:42:00,
2013-09-24 15:48:00,74.0,51.9,29.90,ENE,69,9.0,12.0,46,0.00,,,0.00,Wunderground v.1.15,2013-09-24 20:48:00,
2013-09-24 15:50:00,74.1,52.0,29.89,NE,50,9.0,9.0,46,0.00,,,0.00,Wunderground v.1.15,2013-09-24 20:50:00,
2013-09-24 15:52:00,74.1,52.6,29.90,East,92,10.0,10.0,47,0.00,,,0.00,Wunderground v.1.15,2013-09-24 20:52:00,
2013-09-24 15:54:00,74.1,52.0,29.90,SSE,153,9.0,10.0,46,0.00,,,0.00,Wunderground v.1.15,2013-09-24 20:54:00,
2013-09-24 15:58:00,74.3,52.2,29.90,NE,46,9.0,10.0,46,0.00,,,0.00,Wunderground v.1.15,2013-09-24 20:58:00,
2013-09-24 16:00:00,74.3,52.2,29.89,ESE,115,9.0,14.0,46,0.00,,,0.00,Wunderground v.1.15,2013-09-24 21:00:00,
2013-09-24 16:02:00,74.6,52.4,29.90,ESE,102,9.0,14.0,46,0.00,,,0.00,Wunderground v.1.15,2013-09-24 21:02:00,
2013-09-24 16:06:00,74.2,51.5,29.90,ESE,110,10.0,14.0,45,0.00,,,0.00,Wunderground v.1.15,2013-09-24 21:06:00,
2013-09-24 16:10:00,74.1,52.0,29.89,ENE,65,10.0,10.0,46,0.00,,,0.00,Wunderground v.1.15,2013-09-24 21:10:00,
2013-09-24 16:12:00,74.0,51.3,29.90,NE,50,10.0,10.0,45,0.00,,,0.00,Wunderground v.1.15,2013-09-24 21:12:00,
2013-09-24 16:14:00,74.0,51.9,29.90,East,92,9.0,10.0,46,0.00,,,0.00,Wunderground v.1.15,2013-09-24 21:14:00,
2013-09-24 16:16:00,74.2,52.1,29.90,East,101,9.0,15.0,46,0.00,,,0.00,Wunderground v.1.15,2013-09-24 21:16:00,
2013-09-24 16:18:00,74.1,52.0,29.90,ENE,76,10.0,15.0,46,0.00,,,0.00,Wunderground v.1.15,2013-09-24 21:18:00,
2013-09-24 16:22:00,73.8,51.7,29.89,ENE,78,9.0,12.0,46,0.00,,,0.00,Wunderground v.1.15,2013-09-24 21:22:00,
2013-09-24 16:24:00,73.9,51.8,29.90,ENE,77,10.0,14.0,46,0.00,,,0.00,Wunderground v.1.15,2013-09-24 21:24:00,
2013-09-24 16:28:00,74.1,52.6,29.90,East,81,10.0,14.0,47,0.00,,,0.00,Wunderground v.1.15,2013-09-24 21:28:00,
2013-09-24 16:30:00,74.0,51.9,29.89,ENE,58,10.0,10.0,46,0.00,,,0.00,Wunderground v.1.15,2013-09-24 21:30:00,
2013-09-24 16:34:00,74.0,51.9,29.89,ENE,75,11.0,11.0,46,0.00,,,0.00,Wunderground v.1.15,2013-09-24 21:34:00,
2013-09-24 16:38:00,74.1,52.0,29.89,ENE,73,10.0,11.0,46,0.00,,,0.00,Wunderground v.1.15,2013-09-24 21:38:00,
2013-09-24 16:40:00,74.1,52.0,29.90,East,85,9.0,9.0,46,0.00,,,0.00,Wunderground v.1.15,2013-09-24 21:40:00,
2013-09-24 16:42:00,74.0,51.9,29.90,East,94,9.0,9.0,46,0.00,,,0.00,Wunderground v.1.15,2013-09-24 21:42:00,
2013-09-24 16:44:00,74.3,52.8,29.90,ESE,115,8.0,9.0,47,0.00,,,0.00,Wunderground v.1.15,2013-09-24 21:44:00,
2013-09-24 16:46:00,74.5,52.4,29.90,ENE,76,8.0,11.0,46,0.00,,,0.00,Wunderground v.1.15,2013-09-24 21:46:00,
2013-09-24 16:48:00,74.4,52.3,29.90,ESE,105,8.0,11.0,46,0.00,,,0.00,Wunderground v.1.15,2013-09-24 21:48:00,
2013-09-24 16:50:00,74.4,51.7,29.90,ESE,108,7.0,7.0,45,0.00,,,0.00,Wunderground v.1.15,2013-09-24 21:50:00,
2013-09-24 16:56:00,74.1,52.6,29.90,ESE,105,8.0,10.0,47,0.00,,,0.00,Wunderground v.1.15,2013-09-24 21:56:00,
2013-09-24 17:00:00,74.1,52.6,29.90,ESE,108,7.0,7.0,47,0.00,,,0.00,Wunderground v.1.15,2013-09-24 22:00:00,
2013-09-24 17:02:00,74.2,52.7,29.90,East,79,7.0,8.0,47,0.00,,,0.00,Wunderground v.1.15,2013-09-24 22:02:00,
2013-09-24 17:04:00,74.2,52.7,29.90,NE,55,7.0,8.0,47,0.00,,,0.00,Wunderground v.1.15,2013-09-24 22:04:00,
2013-09-24 17:06:00,74.2,52.7,29.90,ENE,78,6.0,8.0,47,0.00,,,0.00,Wunderground v.1.15,2013-09-24 22:06:00,
2013-09-24 17:08:00,74.2,52.7,29.90,ENE,76,6.0,9.0,47,0.00,,,0.00,Wunderground v.1.15,2013-09-24 22:08:00,
2013-09-24 17:10:00,74.1,52.6,29.90,ENE,72,7.0,7.0,47,0.00,,,0.00,Wunderground v.1.15,2013-09-24 22:10:00,
2013-09-24 17:12:00,74.0,52.5,29.90,ENE,76,7.0,9.0,47,0.00,,,0.00,Wunderground v.1.15,2013-09-24 22:12:00,
2013-09-24 17:14:00,74.0,52.5,29.90,ENE,65,7.0,9.0,47,0.00,,,0.00,Wunderground v.1.15,2013-09-24 22:14:00,
2013-09-24 17:16:00,74.0,52.5,29.90,ENE,75,7.0,11.0,47,0.00,,,0.00,Wunderground v.1.15,2013-09-24 22:16:00,
2013-09-24 17:18:00,74.0,52.5,29.90,East,89,8.0,11.0,47,0.00,,,0.00,Wunderground v.1.15,2013-09-24 22:18:00,
2013-09-24 17:22:00,73.7,51.6,29.90,ESE,108,8.0,10.0,46,0.00,,,0.00,Wunderground v.1.15,2013-09-24 22:22:00,
2013-09-24 17:24:00,73.7,52.2,29.90,NE,55,8.0,10.0,47,0.00,,,0.00,Wunderground v.1.15,2013-09-24 22:24:00,
2013-09-24 17:26:00,73.6,52.1,29.89,ENE,63,8.0,10.0,47,0.00,,,0.00,Wunderground v.1.15,2013-09-24 22:26:00,
2013-09-24 17:30:00,73.7,52.2,29.90,ESE,122,8.0,8.0,47,0.00,,,0.00,Wunderground v.1.15,2013-09-24 22:30:00,
2013-09-24 17:32:00,73.7,51.6,29.90,East,83,8.0,8.0,46,0.00,,,0.00,Wunderground v.1.15,2013-09-24 22:32:00,
2013-09-24 17:34:00,73.7,51.6,29.90,ESE,112,7.0,8.0,46,0.00,,,0.00,Wunderground v.1.15,2013-09-24 22:34:00,
2013-09-24 17:38:00,73.5,52.0,29.90,ENE,65,7.0,8.0,47,0.00,,,0.00,Wunderground v.1.15,2013-09-24 22:38:00,
2013-09-24 17:40:00,73.3,52.4,29.90,ESE,108,6.0,6.0,48,0.00,,,0.00,Wunderground v.1.15,2013-09-24 22:40:00,
2013-09-24 17:42:00,73.1,51.7,29.90,East,89,6.0,9.0,47,0.00,,,0.00,Wunderground v.1.15,2013-09-24 22:42:00,
2013-09-24 17:46:00,72.5,52.2,29.90,East,82,7.0,9.0,49,0.00,,,0.00,Wunderground v.1.15,2013-09-24 22:46:00,
2013-09-24 17:48:00,72.2,52.0,29.90,East,96,7.0,9.0,49,0.00,,,0.00,Wunderground v.1.15,2013-09-24 22:48:00,
2013-09-24 17:50:00,72.1,51.9,29.90,ENE,76,7.0,7.0,49,0.00,,,0.00,Wunderground v.1.15,2013-09-24 22:50:00,
2013-09-24 17:54:00,72.0,51.8,29.90,East,100,6.0,8.0,49,0.00,,,0.00,Wunderground v.1.15,2013-09-24 22:54:00,
2013-09-24 17:56:00,71.9,51.7,29.90,East,96,6.0,8.0,49,0.00,,,0.00,Wunderground v.1.15,2013-09-24 22:56:00,
2013-09-24 17:58:00,71.8,52.2,29.90,ENE,63,5.0,8.0,50,0.00,,,0.00,Wunderground v.1.15,2013-09-24 22:58:00,
2013-09-24 18:02:00,71.3,52.2,29.90,ENE,70,5.0,8.0,51,0.00,,,0.00,Wunderground v.1.15,2013-09-24 23:02:00,
2013-09-24 18:08:00,70.4,52.4,29.90,ENE,78,4.0,8.0,53,0.00,,,0.00,Wunderground v.1.15,2013-09-24 23:08:00,
2013-09-24 18:10:00,70.2,52.8,29.90,ENE,66,5.0,5.0,54,0.00,,,0.00,Wunderground v.1.15,2013-09-24 23:10:00,
2013-09-24 18:12:00,70.1,52.7,29.90,ENE,58,4.0,8.0,54,0.00,,,0.00,Wunderground v.1.15,2013-09-24 23:12:00,
2013-09-24 18:14:00,69.8,52.9,29.90,NE,47,4.0,8.0,55,0.00,,,0.00,Wunderground v.1.15,2013-09-24 23:14:00,
2013-09-24 18:16:00,69.5,52.6,29.90,ENE,60,4.0,8.0,55,0.00,,,0.00,Wunderground v.1.15,2013-09-24 23:16:00,
2013-09-24 18:20:00,69.1,52.7,29.90,ENE,57,4.0,4.0,56,0.00,,,0.00,Wunderground v.1.15,2013-09-24 23:20:00,
2013-09-24 18:22:00,68.9,52.6,29.90,NE,54,4.0,8.0,56,0.00,,,0.00,Wunderground v.1.15,2013-09-24 23:22:00,
2013-09-24 18:24:00,68.8,52.5,29.90,NE,47,4.0,8.0,56,0.00,,,0.00,Wunderground v.1.15,2013-09-24 23:24:00,
2013-09-24 18:26:00,68.7,52.8,29.90,NE,54,4.0,8.0,57,0.00,,,0.00,Wunderground v.1.15,2013-09-24 23:26:00,
2013-09-24 18:32:00,68.4,52.6,29.90,NE,55,4.0,8.0,57,0.00,,,0.00,Wunderground v.1.15,2013-09-24 23:32:00,
2013-09-24 18:36:00,68.1,52.8,29.90,ENE,68,4.0,8.0,58,0.00,,,0.00,Wunderground v.1.15,2013-09-24 23:36:00,
2013-09-24 18:38:00,67.8,52.5,29.90,NE,41,4.0,8.0,58,0.00,,,0.00,Wunderground v.1.15,2013-09-24 23:38:00,
2013-09-24 18:44:00,67.1,52.7,29.90,NE,34,3.0,8.0,60,0.00,,,0.00,Wunderground v.1.15,2013-09-24 23:44:00,
2013-09-24 18:46:00,66.8,52.5,29.90,NE,48,3.0,8.0,60,0.00,,,0.00,Wunderground v.1.15,2013-09-24 23:46:00,
2013-09-24 18:50:00,66.3,52.4,29.90,NE,41,3.0,8.0,61,0.00,,,0.00,Wunderground v.1.15,2013-09-24 23:50:00,
2013-09-24 18:54:00,65.8,52.4,29.90,NNE,25,3.0,8.0,62,0.00,,,0.00,Wunderground v.1.15,2013-09-24 23:54:00,
2013-09-24 18:56:00,65.5,52.1,29.90,NNE,26,3.0,8.0,62,0.00,,,0.00,Wunderground v.1.15,2013-09-24 23:56:00,
2013-09-24 18:58:00,65.3,52.4,29.89,NE,44,3.0,8.0,63,0.00,,,0.00,Wunderground v.1.15,2013-09-24 23:58:00,
2013-09-24 19:00:00,65.2,52.3,29.90,NE,46,3.0,8.0,63,0.00,,,0.00,Wunderground v.1.15,2013-09-25 00:00:00,
2013-09-24 19:02:00,65.1,52.2,29.90,NNE,19,3.0,8.0,63,0.00,,,0.00,Wunderground v.1.15,2013-09-25 00:02:00,
2013-09-24 19:06:00,64.8,52.3,29.89,NE,34,4.0,8.0,64,0.00,,,0.00,Wunderground v.1.15,2013-09-25 00:06:00,
2013-09-24 19:08:00,64.7,52.2,29.89,NNE,26,4.0,8.0,64,0.00,,,0.00,Wunderground v.1.15,2013-09-25 00:08:00,
2013-09-24 19:10:00,64.7,52.2,29.89,NE,47,4.0,8.0,64,0.00,,,0.00,Wunderground v.1.15,2013-09-25 00:10:00,
2013-09-24 19:16:00,64.4,52.0,29.90,NE,37,4.0,8.0,64,0.00,,,0.00,Wunderground v.1.15,2013-09-25 00:16:00,
2013-09-24 19:20:00,64.1,52.1,29.90,ENE,58,4.0,4.0,65,0.00,,,0.00,Wunderground v.1.15,2013-09-25 00:20:00,
2013-09-24 19:22:00,64.0,52.0,29.90,NE,43,4.0,8.0,65,0.00,,,0.00,Wunderground v.1.15,2013-09-25 00:22:00,
2013-09-24 19:24:00,63.9,51.9,29.90,NE,56,4.0,8.0,65,0.00,,,0.00,Wunderground v.1.15,2013-09-25 00:24:00,
2013-09-24 19:28:00,63.6,52.0,29.90,ENE,61,4.0,8.0,66,0.00,,,0.00,Wunderground v.1.15,2013-09-25 00:28:00,
2013-09-24 19:30:00,63.6,52.0,29.90,NE,44,4.0,4.0,66,0.00,,,0.00,Wunderground v.1.15,2013-09-25 00:30:00,
2013-09-24 19:34:00,63.5,51.9,29.90,NE,37,4.0,8.0,66,0.00,,,0.00,Wunderground v.1.15,2013-09-25 00:34:00,
2013-09-24 19:36:00,63.4,51.8,29.90,NE,44,4.0,8.0,66,0.00,,,0.00,Wunderground v.1.15,2013-09-25 00:36:00,
2013-09-24 19:38:00,63.4,52.2,29.90,NNE,23,5.0,8.0,67,0.00,,,0.00,Wunderground v.1.15,2013-09-25 00:38:00,
2013-09-24 19:40:00,63.4,52.2,29.90,NE,41,5.0,5.0,67,0.00,,,0.00,Wunderground v.1.15,2013-09-25 00:40:00,
2013-09-24 19:42:00,63.4,52.2,29.90,NE,44,5.0,9.0,67,0.00,,,0.00,Wunderground v.1.15,2013-09-25 00:42:00,
2013-09-24 19:46:00,63.3,52.6,29.90,NE,54,6.0,9.0,68,0.00,,,0.00,Wunderground v.1.15,2013-09-25 00:46:00,
2013-09-24 19:48:00,63.3,52.6,29.90,NE,49,6.0,9.0,68,0.00,,,0.00,Wunderground v.1.15,2013-09-25 00:48:00,
2013-09-24 19:52:00,63.1,52.4,29.90,ENE,63,7.0,9.0,68,0.00,,,0.00,Wunderground v.1.15,2013-09-25 00:52:00,
2013-09-24 19:56:00,62.9,52.6,29.90,NE,50,8.0,9.0,69,0.00,,,0.00,Wunderground v.1.15,2013-09-25 00:56:00,
2013-09-24 20:00:00,62.8,52.5,29.90,ENE,59,8.0,8.0,69,0.00,,,0.00,Wunderground v.1.15,2013-09-25 01:00:00,
2013-09-24 20:06:00,62.6,52.7,29.90,ENE,78,7.0,10.0,70,0.00,,,0.00,Wunderground v.1.15,2013-09-25 01:06:00,
2013-09-24 20:08:00,62.5,52.6,29.90,NE,47,7.0,10.0,70,0.00,,,0.00,Wunderground v.1.15,2013-09-25 01:08:00,
2013-09-24 20:14:00,62.3,52.4,29.91,NE,54,8.0,10.0,70,0.00,,,0.00,Wunderground v.1.15,2013-09-25 01:14:00,
2013-09-24 20:16:00,62.3,52.4,29.91,NE,44,7.0,10.0,70,0.00,,,0.00,Wunderground v.1.15,2013-09-25 01:16:00,
2013-09-24 20:18:00,62.1,52.6,29.91,East,84,7.0,10.0,71,0.00,,,0.00,Wunderground v.1.15,2013-09-25 01:18:00,
2013-09-24 20:22:00,62.1,52.6,29.91,ENE,58,7.0,8.0,71,0.00,,,0.00,Wunderground v.1.15,2013-09-25 01:22:00,
2013-09-24 20:24:00,62.0,52.5,29.91,ENE,65,7.0,8.0,71,0.00,,,0.00,Wunderground v.1.15,2013-09-25 01:24:00,
2013-09-24 20:26:00,61.9,52.4,29.91,NNE,19,7.0,8.0,71,0.00,,,0.00,Wunderground v.1.15,2013-09-25 01:26:00,
2013-09-24 20:30:00,61.7,52.6,29.91,NE,37,7.0,7.0,72,0.00,,,0.00,Wunderground v.1.15,2013-09-25 01:30:00,
2013-09-24 20:32:00,61.6,52.5,29.91,NE,52,7.0,8.0,72,0.00,,,0.00,Wunderground v.1.15,2013-09-25 01:32:00,
2013-09-24 20:34:00,61.4,52.7,29.91,NE,44,7.0,8.0,73,0.00,,,0.00,Wunderground v.1.15,2013-09-25 01:34:00,
2013-09-24 20:36:00,61.2,52.5,29.91,NE,37,7.0,8.0,73,0.00,,,0.00,Wunderground v.1.15,2013-09-25 01:36:00,
2013-09-24 20:40:00,60.9,52.6,29.91,NNE,33,7.0,10.0,74,0.00,,,0.00,Wunderground v.1.15,2013-09-25 01:40:00,
2013-09-24 20:42:00,60.7,52.7,29.91,NE,40,6.0,10.0,75,0.00,,,0.00,Wunderground v.1.15,2013-09-25 01:42:00,
2013-09-24 20:48:00,60.1,52.5,29.91,North,356,6.0,10.0,76,0.00,,,0.00,Wunderground v.1.15,2013-09-25 01:48:00,
2013-09-24 20:50:00,60.0,52.8,29.91,NE,44,6.0,6.0,77,0.00,,,0.00,Wunderground v.1.15,2013-09-25 01:50:00,
2013-09-24 20:52:00,59.8,52.6,29.91,NNE,15,6.0,11.0,77,0.00,,,0.00,Wunderground v.1.15,2013-09-25 01:52:00,
2013-09-24 20:54:00,59.7,52.5,29.91,NNE,29,6.0,11.0,77,0.00,,,0.00,Wunderground v.1.15,2013-09-25 01:54:00,
2013-09-24 21:00:00,59.5,52.6,29.91,NNE,29,6.0,8.0,78,0.00,,,0.00,Wunderground v.1.15,2013-09-25 02:00:00,
2013-09-24 21:04:00,59.3,52.4,29.91,ENE,58,6.0,8.0,78,0.00,,,0.00,Wunderground v.1.15,2013-09-25 02:04:00,
2013-09-24 21:06:00,59.2,52.7,29.91,NNE,31,6.0,8.0,79,0.00,,,0.00,Wunderground v.1.15,2013-09-25 02:06:00,
2013-09-24 21:08:00,59.1,52.6,29.91,NNE,33,6.0,8.0,79,0.00,,,0.00,Wunderground v.1.15,2013-09-25 02:08:00,
2013-09-24 21:14:00,58.9,52.7,29.91,NNE,26,6.0,9.0,80,0.00,,,0.00,Wunderground v.1.15,2013-09-25 02:14:00,
2013-09-24 21:16:00,58.8,52.6,29.91,NNE,32,6.0,9.0,80,0.00,,,0.00,Wunderground v.1.15,2013-09-25 02:16:00,
2013-09-24 21:18:00,58.7,52.5,29.91,NE,39,6.0,9.0,80,0.00,,,0.00,Wunderground v.1.15,2013-09-25 02:18:00,
2013-09-24 21:22:00,58.6,52.8,29.91,ENE,65,6.0,9.0,81,0.00,,,0.00,Wunderground v.1.15,2013-09-25 02:22:00,
2013-09-24 21:24:00,58.5,52.7,29.91,NE,54,7.0,9.0,81,0.00,,,0.00,Wunderground v.1.15,2013-09-25 02:24:00,
2013-09-24 21:26:00,58.4,52.6,29.91,NE,49,7.0,9.0,81,0.00,,,0.00,Wunderground v.1.15,2013-09-25 02:26:00,
2013-09-24 21:28:00,58.4,52.6,29.91,ENE,57,7.0,9.0,81,0.00,,,0.00,Wunderground v.1.15,2013-09-25 02:28:00,
2013-09-24 21:30:00,58.3,52.5,29.91,NE,51,6.0,6.0,81,0.00,,,0.00,Wunderground v.1.15,2013-09-25 02:30:00,
2013-09-24 21:32:00,58.3,52.5,29.91,ENE,57,7.0,11.0,81,0.00,,,0.00,Wunderground v.1.15,2013-09-25 02:32:00,
2013-09-24 21:34:00,58.2,52.4,29.91,ENE,65,7.0,11.0,81,0.00,,,0.00,Wunderground v.1.15,2013-09-25 02:34:00,
2013-09-24 21:36:00,58.2,52.7,29.91,East,86,7.0,11.0,82,0.00,,,0.00,Wunderground v.1.15,2013-09-25 02:36:00,
2013-09-24 21:38:00,58.1,52.6,29.91,NE,54,7.0,11.0,82,0.00,,,0.00,Wunderground v.1.15,2013-09-25 02:38:00,
2013-09-24 21:42:00,58.0,52.5,29.91,ENE,63,7.0,9.0,82,0.00,,,0.00,Wunderground v.1.15,2013-09-25 02:42:00,
2013-09-24 21:44:00,58.0,52.5,29.91,NE,40,7.0,9.0,82,0.00,,,0.00,Wunderground v.1.15,2013-09-25 02:44:00,
2013-09-24 21:46:00,57.9,52.4,29.91,NE,56,7.0,9.0,82,0.00,,,0.00,Wunderground v.1.15,2013-09-25 02:46:00,
2013-09-24 21:48:00,57.8,52.3,29.91,NNE,29,8.0,9.0,82,0.00,,,0.00,Wunderground v.1.15,2013-09-25 02:48:00,
2013-09-24 21:52:00,57.8,52.7,29.91,ENE,58,8.0,8.0,83,0.00,,,0.00,Wunderground v.1.15,2013-09-25 02:52:00,
2013-09-24 21:54:00,57.7,52.6,29.91,ENE,57,8.0,8.0,83,0.00,,,0.00,Wunderground v.1.15,2013-09-25 02:54:00,
2013-09-24 22:00:00,57.5,52.4,29.91,NE,52,8.0,8.0,83,0.00,,,0.00,Wunderground v.1.15,2013-09-25 03:00:00,
2013-09-24 22:02:00,57.4,52.3,29.91,NE,56,8.0,8.0,83,0.00,,,0.00,Wunderground v.1.15,2013-09-25 03:02:00,
2013-09-24 22:04:00,57.2,52.4,29.91,NE,44,7.0,8.0,84,0.00,,,0.00,Wunderground v.1.15,2013-09-25 03:04:00,
2013-09-24 22:06:00,57.1,52.3,29.91,NNE,29,7.0,9.0,84,0.00,,,0.00,Wunderground v.1.15,2013-09-25 03:06:00,
2013-09-24 22:08:00,57.0,52.2,29.91,ENE,57,7.0,9.0,84,0.00,,,0.00,Wunderground v.1.15,2013-09-25 03:08:00,
2013-09-24 22:12:00,56.8,52.3,29.91,NE,49,6.0,10.0,85,0.00,,,0.00,Wunderground v.1.15,2013-09-25 03:12:00,
2013-09-24 22:16:00,56.6,52.1,29.91,NE,47,7.0,10.0,85,0.00,,,0.00,Wunderground v.1.15,2013-09-25 03:16:00,
2013-09-24 22:18:00,56.5,52.4,29.91,NE,49,7.0,11.0,86,0.00,,,0.00,Wunderground v.1.15,2013-09-25 03:18:00,
2013-09-24 22:24:00,56.2,52.1,29.91,NE,40,7.0,9.0,86,0.00,,,0.00,Wunderground v.1.15,2013-09-25 03:24:00,
2013-09-24 22:26:00,56.2,52.1,29.91,NE,53,7.0,9.0,86,0.00,,,0.00,Wunderground v.1.15,2013-09-25 03:26:00,
2013-09-24 22:28:00,56.1,52.0,29.91,NNE,25,6.0,9.0,86,0.00,,,0.00,Wunderground v.1.15,2013-09-25 03:28:00,
2013-09-24 22:30:00,56.1,52.3,29.91,NE,51,6.0,6.0,87,0.00,,,0.00,Wunderground v.1.15,2013-09-25 03:30:00,
2013-09-24 22:34:00,56.0,52.2,29.91,NE,54,7.0,8.0,87,0.00,,,0.00,Wunderground v.1.15,2013-09-25 03:34:00,
2013-09-24 22:36:00,55.9,52.1,29.91,ENE,65,6.0,8.0,87,0.00,,,0.00,Wunderground v.1.15,2013-09-25 03:36:00,
2013-09-24 22:40:00,55.8,52.0,29.91,NE,44,6.0,8.0,87,0.00,,,0.00,Wunderground v.1.15,2013-09-25 03:40:00,
2013-09-24 22:42:00,55.7,51.9,29.91,NNE,32,6.0,8.0,87,0.00,,,0.00,Wunderground v.1.15,2013-09-25 03:42:00,
2013-09-24 22:46:00,55.6,52.1,29.91,NNE,33,5.0,8.0,88,0.00,,,0.00,Wunderground v.1.15,2013-09-25 03:46:00,
2013-09-24 22:48:00,55.5,52.0,29.91,NE,51,5.0,8.0,88,0.00,,,0.00,Wunderground v.1.15,2013-09-25 03:48:00,
2013-09-24 22:50:00,55.4,51.9,29.91,NE,52,5.0,8.0,88,0.00,,,0.00,Wunderground v.1.15,2013-09-25 03:50:00,
2013-09-24 22:52:00,55.4,51.9,29.91,NE,43,5.0,8.0,88,0.00,,,0.00,Wunderground v.1.15,2013-09-25 03:52:00,
2013-09-24 22:54:00,55.3,51.8,29.91,NE,37,5.0,8.0,88,0.00,,,0.00,Wunderground v.1.15,2013-09-25 03:54:00,
2013-09-24 22:58:00,55.2,51.7,29.91,ENE,60,5.0,8.0,88,0.00,,,0.00,Wunderground v.1.15,2013-09-25 03:58:00,
2013-09-24 23:00:00,55.1,51.9,29.91,NNE,23,5.0,5.0,89,0.00,,,0.00,Wunderground v.1.15,2013-09-25 04:00:00,
2013-09-24 23:02:00,55.1,51.9,29.91,NE,40,4.0,8.0,89,0.00,,,0.00,Wunderground v.1.15,2013-09-25 04:02:00,
2013-09-24 23:04:00,55.0,51.8,29.92,NNE,28,4.0,8.0,89,0.00,,,0.00,Wunderground v.1.15,2013-09-25 04:04:00,
2013-09-24 23:08:00,54.9,51.7,29.92,NNE,29,5.0,8.0,89,0.00,,,0.00,Wunderground v.1.15,2013-09-25 04:08:00,
2013-09-24 23:10:00,54.9,51.7,29.92,NNE,19,5.0,5.0,89,0.00,,,0.00,Wunderground v.1.15,2013-09-25 04:10:00,
2013-09-24 23:12:00,54.8,51.6,29.92,NE,39,5.0,6.0,89,0.00,,,0.00,Wunderground v.1.15,2013-09-25 04:12:00,
2013-09-24 23:16:00,54.6,51.7,29.92,NE,37,5.0,8.0,90,0.00,,,0.00,Wunderground v.1.15,2013-09-25 04:16:00,
2013-09-24 23:18:00,54.6,51.7,29.92,NE,51,4.0,8.0,90,0.00,,,0.00,Wunderground v.1.15,2013-09-25 04:18:00,
2013-09-24 23:22:00,54.4,51.5,29.92,NNE,19,4.0,8.0,90,0.00,,,0.00,Wunderground v.1.15,2013-09-25 04:22:00,
2013-09-24 23:24:00,54.4,51.5,29.92,ENE,57,4.0,8.0,90,0.00,,,0.00,Wunderground v.1.15,2013-09-25 04:24:00,
2013-09-24 23:26:00,54.3,51.4,29.92,NE,44,5.0,8.0,90,0.00,,,0.00,Wunderground v.1.15,2013-09-25 04:26:00,
2013-09-24 23:30:00,54.3,51.7,29.92,North,1,5.0,8.0,91,0.00,,,0.00,Wunderground v.1.15,2013-09-25 04:30:00,
2013-09-24 23:34:00,54.2,51.6,29.92,NNE,13,5.0,8.0,91,0.00,,,0.00,Wunderground v.1.15,2013-09-25 04:34:00,
2013-09-24 23:38:00,54.2,51.6,29.92,NNE,23,5.0,8.0,91,0.00,,,0.00,Wunderground v.1.15,2013-09-25 04:38:00,
2013-09-24 23:40:00,54.1,51.5,29.92,NE,34,5.0,5.0,91,0.00,,,0.00,Wunderground v.1.15,2013-09-25 04:40:00,
2013-09-24 23:42:00,54.1,51.5,29.92,NE,39,5.0,6.0,91,0.00,,,0.00,Wunderground v.1.15,2013-09-25 04:42:00,
2013-09-24 23:46:00,54.1,51.5,29.92,NE,40,5.0,8.0,91,0.00,,,0.00,Wunderground v.1.15,2013-09-25 04:46:00,
2013-09-24 23:48:00,54.1,51.5,29.92,NE,34,5.0,8.0,91,0.00,,,0.00,Wunderground v.1.15,2013-09-25 04:48:00,
2013-09-24 23:52:00,54.0,51.4,29.92,NNE,26,5.0,8.0,91,0.00,,,0.00,Wunderground v.1.15,2013-09-25 04:52:00,
2013-09-24 23:54:00,54.0,51.4,29.93,NNE,29,5.0,8.0,91,0.00,,,0.00,Wunderground v.1.15,2013-09-25 04:54:00,
2013-09-24 23:56:00,53.9,51.3,29.93,NE,43,5.0,8.0,91,0.00,,,0.00,Wunderground v.1.15,2013-09-25 04:56:00,
2013-09-24 23:58:00,53.9,51.3,29.93,NNE,18,5.0,8.0,91,0.00,,,0.00,Wunderground v.1.15,2013-09-25 04:58:00,